createdAt,value
2023-03-12T11:58:40.328Z,0.85
2023-03-12T12:01:18.253Z,0.40
2023-03-12T12:03:59.776Z,0.63
2023-03-12T12:06:57.442Z,0.43
2023-03-12T12:09:30.284Z,0.60
2023-03-12T12:12:12.531Z,0.40
2023-03-12T12:15:02.427Z,0.40
2023-03-12T12:17:50.036Z,0.55
2023-03-12T12:20:26.794Z,0.35
2023-03-12T12:23:23.293Z,0.80
2023-03-12T12:25:57.512Z,0.55
2023-03-12T12:28:36.422Z,1.00
2023-03-12T12:31:40.578Z,0.40
2023-03-12T12:34:26.264Z,0.40
2023-03-12T12:37:20.680Z,0.50
2023-03-12T12:40:18.858Z,0.40
2023-03-12T12:43:21.892Z,0.50
2023-03-12T12:45:51.316Z,0.60
2023-03-12T12:48:23.811Z,0.43
2023-03-12T12:50:52.962Z,0.60
2023-03-12T12:53:43.359Z,0.60
2023-03-12T12:56:29.054Z,0.40
2023-03-12T12:59:32.736Z,0.47
2023-03-12T13:02:02.165Z,0.47
2023-03-12T13:04:35.176Z,0.30
2023-03-12T13:07:12.435Z,0.40
2023-03-12T13:09:50.506Z,0.55
2023-03-12T13:12:22.323Z,0.30
2023-03-12T13:14:50.221Z,0.50
2023-03-12T13:17:20.485Z,0.38
2023-03-12T13:20:00.963Z,0.50
2023-03-12T13:22:46.691Z,0.40
2023-03-12T13:25:34.009Z,0.32
2023-03-12T13:28:35.977Z,0.50
2023-03-12T13:31:22.382Z,0.52
2023-03-12T13:33:53.548Z,0.40
2023-03-12T13:36:29.174Z,0.30
2023-03-12T13:39:17.570Z,0.50
2023-03-12T13:41:47.170Z,0.40
2023-03-12T13:44:25.215Z,0.40
2023-03-12T13:47:10.653Z,0.60
2023-03-12T13:49:44.964Z,0.40
2023-03-12T13:52:14.516Z,0.45
2023-03-12T13:54:45.541Z,0.43
2023-03-12T13:57:32.136Z,0.55
2023-03-12T14:00:00.178Z,0.40
2023-03-12T14:02:36.940Z,0.40
2023-03-12T14:05:08.174Z,0.70
2023-03-12T14:07:57.785Z,0.65
2023-03-12T14:11:02.833Z,0.52
2023-03-12T14:13:32.665Z,0.32
2023-03-12T14:16:05.737Z,0.50
2023-03-12T14:18:35.821Z,0.40
2023-03-12T14:21:07.826Z,0.60
2023-03-12T14:23:48.673Z,0.52
2023-03-12T14:26:21.376Z,0.40
2023-03-12T14:28:55.873Z,0.50
2023-03-12T14:33:57.266Z,0.40
2023-03-12T14:36:28.455Z,0.40
2023-03-12T14:39:10.903Z,0.60
2023-03-12T14:41:45.202Z,0.50
2023-03-12T14:44:27.378Z,0.60
2023-03-12T14:47:00.356Z,0.50
2023-03-12T14:49:28.292Z,0.60
2023-03-12T14:51:55.693Z,0.47
2023-03-12T14:54:25.445Z,0.40
2023-03-12T14:56:52.293Z,0.57
2023-03-12T14:59:26.081Z,0.40
2023-03-12T15:02:10.383Z,0.40
2023-03-12T15:04:38.125Z,0.50
2023-03-12T15:07:09.687Z,0.50
2023-03-12T15:09:37.220Z,0.52
2023-03-12T15:12:17.906Z,0.40
2023-03-12T15:14:44.973Z,0.70
2023-03-12T15:17:20.334Z,0.52
2023-03-12T15:19:48.713Z,0.70
2023-03-12T15:22:18.380Z,0.60
2023-03-12T15:24:45.435Z,0.50
2023-03-12T15:27:23.805Z,0.40
2023-03-12T15:29:51.065Z,0.60
2023-03-12T15:32:20.732Z,0.63
2023-03-12T15:34:48.117Z,0.45
2023-03-12T15:37:39.019Z,0.50
2023-03-12T15:40:19.839Z,0.40
2023-03-12T15:42:48.833Z,0.45
2023-03-12T15:45:21.853Z,0.40
2023-03-12T15:47:49.704Z,0.32
2023-03-12T15:50:24.081Z,0.60
2023-03-12T15:53:05.987Z,0.40
2023-03-12T15:55:36.011Z,0.40
2023-03-12T15:58:03.985Z,0.43
2023-03-12T16:00:43.978Z,0.30
2023-03-12T16:03:19.089Z,0.32
2023-03-12T16:05:46.504Z,0.40
2023-03-12T16:08:15.890Z,0.35
2023-03-12T16:10:42.582Z,0.40
2023-03-12T16:13:14.329Z,0.40
2023-03-12T16:15:41.162Z,0.40
2023-03-12T16:18:18.797Z,0.40
2023-03-12T16:20:46.415Z,0.50
2023-03-12T16:23:13.504Z,0.80
2023-03-12T16:25:44.174Z,0.40
2023-03-12T16:28:14.115Z,0.30
2023-03-12T16:30:41.208Z,0.40
2023-03-12T16:33:09.433Z,0.50
2023-03-12T16:35:36.590Z,0.50
2023-03-12T16:38:04.056Z,0.43
2023-03-12T16:40:34.266Z,0.43
2023-03-12T16:43:04.850Z,0.50
2023-03-12T16:45:34.973Z,0.50
2023-03-12T16:48:05.259Z,0.35
2023-03-12T16:50:32.566Z,0.40
2023-03-12T16:52:59.757Z,0.40
2023-03-12T16:55:29.608Z,0.52
2023-03-12T16:58:01.418Z,0.30
2023-03-12T17:00:30.921Z,0.40
2023-03-12T17:02:59.155Z,0.30
2023-03-12T17:05:28.319Z,0.47
2023-03-12T17:07:55.697Z,0.43
2023-03-12T17:10:23.155Z,0.63
2023-03-12T17:12:51.253Z,0.38
2023-03-12T17:15:26.265Z,0.40
2023-03-12T17:17:55.617Z,0.60
2023-03-12T17:20:24.826Z,0.40
2023-03-12T17:22:51.801Z,0.43
2023-03-12T17:25:23.028Z,0.40
2023-03-12T17:27:50.170Z,0.47
2023-03-12T17:30:17.610Z,0.40
2023-03-12T17:32:44.794Z,0.40
2023-03-12T17:35:11.809Z,0.57
2023-03-12T17:37:39.133Z,0.40
2023-03-12T17:40:08.117Z,0.40
2023-03-12T17:42:35.652Z,0.40
2023-03-12T17:45:03.545Z,0.40
2023-03-12T17:47:31.087Z,0.60
2023-03-12T17:49:57.998Z,0.40
2023-03-12T17:52:25.092Z,0.52
2023-03-12T17:54:52.031Z,0.40
2023-03-12T17:57:18.744Z,0.60
2023-03-12T17:59:45.746Z,0.40
2023-03-12T18:02:14.690Z,0.40
2023-03-12T18:04:41.338Z,0.30
2023-03-12T18:07:08.562Z,0.40
2023-03-12T18:09:35.501Z,0.50
2023-03-12T18:12:02.416Z,0.40
2023-03-12T18:14:30.085Z,0.43
2023-03-12T18:16:57.113Z,0.40
2023-03-12T18:19:23.767Z,0.40
2023-03-12T18:21:50.445Z,0.60
2023-03-12T18:24:17.071Z,0.30
2023-03-12T18:26:45.260Z,0.50
2023-03-12T18:29:12.896Z,0.43
2023-03-12T18:31:39.531Z,0.75
2023-03-12T18:34:06.185Z,0.50
2023-03-12T18:36:33.256Z,0.50
2023-03-12T18:39:04.977Z,0.47
2023-03-12T18:41:33.502Z,0.50
2023-03-12T18:44:00.828Z,0.77
2023-03-12T18:46:28.292Z,0.47
2023-03-12T18:48:55.419Z,0.50
2023-03-12T18:51:22.125Z,0.60
2023-03-12T18:53:48.758Z,0.40
2023-03-12T18:56:15.676Z,0.30
2023-03-12T18:58:42.402Z,0.40
2023-03-12T19:01:08.988Z,0.68
2023-03-12T19:03:36.724Z,0.50
2023-03-12T19:06:11.777Z,0.30
2023-03-12T19:08:39.850Z,0.40
2023-03-12T19:11:08.424Z,0.40
2023-03-12T19:13:36.207Z,0.40
2023-03-12T19:16:08.767Z,0.60
2023-03-12T19:18:37.040Z,0.30
2023-03-12T19:21:04.738Z,0.50
2023-03-12T19:23:31.340Z,0.65
2023-03-12T19:25:57.937Z,0.40
2023-03-12T19:28:24.811Z,0.50
2023-03-12T19:30:51.440Z,0.50
2023-03-12T19:33:18.178Z,0.35
2023-03-12T19:35:44.909Z,0.30
2023-03-12T19:38:11.552Z,0.40
2023-03-12T19:40:38.157Z,0.60
2023-03-12T19:43:04.925Z,0.43
2023-03-12T19:45:31.549Z,0.65
2023-03-12T19:47:58.256Z,1.05
2023-03-12T19:50:25.128Z,0.85
2023-03-12T19:52:51.821Z,0.50
2023-03-12T19:55:18.572Z,0.70
2023-03-12T19:57:45.628Z,0.70
2023-03-12T20:00:13.144Z,0.88
2023-03-12T20:02:39.963Z,0.40
2023-03-12T20:05:07.955Z,0.60
2023-03-12T20:07:35.288Z,0.73
2023-03-12T20:10:01.982Z,0.75
2023-03-12T20:12:28.635Z,0.80
2023-03-12T20:14:55.294Z,0.73
2023-03-12T20:17:21.945Z,0.65
2023-03-12T20:19:48.797Z,0.70
2023-03-12T20:22:15.590Z,0.50
2023-03-12T20:24:42.317Z,0.68
2023-03-12T20:27:08.999Z,0.57
2023-03-12T20:29:35.638Z,0.68
2023-03-12T20:32:02.391Z,0.82
2023-03-12T20:34:29.036Z,0.57
2023-03-12T20:36:55.706Z,0.60
2023-03-12T20:39:22.438Z,0.60
2023-03-12T20:41:49.744Z,0.60
2023-03-12T20:44:16.963Z,0.95
2023-03-12T20:46:43.637Z,0.65
2023-03-12T20:49:10.329Z,0.50
2023-03-12T20:51:36.999Z,0.60
2023-03-12T20:54:03.675Z,0.57
2023-03-12T20:56:30.373Z,0.90
2023-03-12T20:58:57.360Z,0.60
2023-03-12T21:01:24.014Z,0.40
2023-03-12T21:03:50.984Z,0.68
2023-03-12T21:06:17.618Z,0.57
2023-03-12T21:08:44.237Z,0.40
2023-03-12T21:11:10.952Z,0.40
2023-03-12T21:13:38.209Z,0.75
2023-03-12T21:16:07.218Z,0.73
2023-03-12T21:18:34.107Z,1.55
2023-03-12T21:21:05.645Z,1.40
2023-03-12T21:23:33.944Z,1.10
2023-03-12T21:26:03.667Z,1.55
2023-03-12T21:28:31.427Z,1.98
2023-03-12T21:31:12.201Z,1.48
2023-03-12T21:33:39.330Z,1.92
2023-03-12T21:36:11.371Z,1.13
2023-03-12T21:38:39.501Z,4.20
2023-03-12T21:41:11.685Z,1.98
2023-03-12T21:43:39.399Z,2.28
2023-03-12T21:46:08.145Z,1.13
2023-03-12T21:48:35.403Z,2.60
2023-03-12T21:51:07.701Z,4.13
2023-03-12T21:53:34.935Z,1.52
2023-03-12T21:56:03.053Z,2.42
2023-03-12T21:58:31.850Z,1.10
2023-03-12T22:01:09.725Z,2.13
2023-03-12T22:03:36.789Z,1.85
2023-03-12T22:06:04.877Z,2.92
2023-03-12T22:08:32.236Z,1.40
2023-03-12T22:10:59.566Z,1.25
2023-03-12T22:13:26.421Z,1.60
2023-03-12T22:15:55.252Z,1.98
2023-03-12T22:18:22.970Z,1.60
2023-03-12T22:20:57.897Z,2.53
2023-03-12T22:23:24.694Z,2.20
2023-03-12T22:25:51.321Z,1.02
2023-03-12T22:28:18.980Z,1.17
2023-03-12T22:30:45.660Z,1.08
2023-03-12T22:33:12.750Z,0.60
2023-03-12T22:35:46.574Z,0.65
2023-03-12T22:38:13.637Z,0.80
2023-03-12T22:40:41.359Z,1.20
2023-03-12T22:43:08.281Z,0.80
2023-03-12T22:45:35.972Z,0.75
2023-03-12T22:48:03.038Z,0.68
2023-03-12T22:50:29.783Z,0.77
2023-03-12T22:52:56.485Z,0.70
2023-03-12T22:55:23.284Z,0.50
2023-03-12T22:57:50.092Z,0.47
2023-03-12T23:00:22.886Z,0.63
2023-03-12T23:02:50.163Z,0.50
2023-03-12T23:05:17.282Z,1.00
2023-03-12T23:07:44.411Z,0.88
2023-03-12T23:10:11.559Z,0.50
2023-03-12T23:12:39.086Z,0.60
2023-03-12T23:15:06.674Z,0.60
2023-03-12T23:17:33.599Z,0.70
2023-03-12T23:20:00.203Z,0.68
2023-03-12T23:22:26.850Z,0.93
2023-03-12T23:24:53.454Z,0.60
2023-03-12T23:27:20.096Z,0.60
2023-03-12T23:29:46.744Z,0.60
2023-03-12T23:32:13.402Z,1.00
2023-03-12T23:34:40.037Z,0.50
2023-03-12T23:37:07.234Z,0.80
2023-03-12T23:39:44.990Z,0.60
2023-03-12T23:42:18.943Z,0.55
2023-03-12T23:44:46.765Z,0.60
2023-03-12T23:47:13.773Z,0.50
2023-03-12T23:49:40.363Z,0.90
2023-03-12T23:52:07.052Z,0.70
2023-03-12T23:54:33.932Z,0.63
2023-03-12T23:57:00.526Z,0.60
2023-03-12T23:59:27.247Z,0.80
